createdAt,value
2018-03-26T00:01:35.154Z,94496.03
2018-03-26T00:04:02.068Z,94495.00
2018-03-26T00:06:28.993Z,94485.35
2018-03-26T00:08:55.916Z,94483.13
2018-03-26T00:11:22.866Z,94486.67
2018-03-26T00:13:49.784Z,94490.48
2018-03-26T00:16:16.714Z,94485.52
2018-03-26T00:18:43.637Z,94484.39
2018-03-26T00:21:10.567Z,94487.07
2018-03-26T00:23:37.493Z,94488.35
2018-03-26T00:26:04.408Z,94485.20
2018-03-26T00:28:31.359Z,94477.29
2018-03-26T00:30:58.283Z,94475.38
2018-03-26T00:33:25.217Z,94473.28
2018-03-26T00:35:52.166Z,94483.47
2018-03-26T00:38:19.089Z,94482.27
2018-03-26T00:40:46.011Z,94481.26
2018-03-26T00:43:12.935Z,94482.35
2018-03-26T00:45:39.857Z,94484.64
2018-03-26T00:48:06.787Z,94482.75
2018-03-26T00:50:33.708Z,94477.77
2018-03-26T00:53:00.633Z,94476.44
2018-03-26T00:55:27.562Z,94469.25
2018-03-26T00:57:54.523Z,94464.64
2018-03-26T01:00:21.447Z,94456.91
2018-03-26T01:02:48.367Z,94453.28
2018-03-26T01:05:15.297Z,94448.31
2018-03-26T01:07:42.248Z,94454.94
2018-03-26T01:10:09.172Z,94455.17
2018-03-26T01:12:36.088Z,94446.33
2018-03-26T01:15:03.024Z,94443.37
2018-03-26T01:17:29.942Z,94448.42
2018-03-26T01:19:56.886Z,94439.75
2018-03-26T01:22:23.808Z,94440.99
2018-03-26T01:24:50.764Z,94438.55
2018-03-26T01:27:17.685Z,94446.68
2018-03-26T01:29:44.603Z,94435.78
2018-03-26T01:32:11.530Z,94428.91
2018-03-26T01:34:38.455Z,94414.87
2018-03-26T01:37:05.384Z,94408.70
2018-03-26T01:39:32.303Z,94414.63
2018-03-26T01:41:59.235Z,94422.13
2018-03-26T01:44:26.160Z,94423.41
2018-03-26T01:46:53.115Z,94413.61
2018-03-26T01:49:20.034Z,94418.31
2018-03-26T01:51:46.958Z,94416.27
2018-03-26T01:54:13.887Z,94414.21
2018-03-26T01:56:40.850Z,94418.18
2018-03-26T01:59:07.731Z,94418.66
2018-03-26T02:01:34.652Z,94411.48
2018-03-26T02:04:01.579Z,94411.72
2018-03-26T02:06:28.524Z,94407.45
2018-03-26T02:08:55.440Z,94412.02
2018-03-26T02:11:22.369Z,94411.23
2018-03-26T02:13:49.287Z,94408.55
2018-03-26T02:16:16.207Z,94412.91
2018-03-26T02:18:43.128Z,94409.42
2018-03-26T02:21:10.049Z,94408.63
2018-03-26T02:23:36.971Z,94399.56
2018-03-26T02:26:03.896Z,94391.89
2018-03-26T02:28:30.831Z,94397.88
2018-03-26T02:30:57.759Z,94403.41
2018-03-26T02:33:24.682Z,94395.98
2018-03-26T02:35:51.604Z,94394.06
2018-03-26T02:38:18.544Z,94394.30
2018-03-26T02:40:48.255Z,94391.86
2018-03-26T02:43:17.063Z,94400.53
2018-03-26T02:45:44.442Z,94400.58
2018-03-26T02:48:11.397Z,94402.84
2018-03-26T02:50:38.375Z,94401.89
2018-03-26T02:53:06.276Z,94409.07
2018-03-26T02:55:34.163Z,94403.30
2018-03-26T02:58:01.947Z,94413.44
2018-03-26T03:00:28.875Z,94418.96
2018-03-26T03:02:56.762Z,94420.00
2018-03-26T03:05:23.763Z,94415.79
2018-03-26T03:07:50.812Z,94418.33
2018-03-26T03:10:17.815Z,94420.86
2018-03-26T03:12:46.601Z,94424.67
2018-03-26T03:15:13.657Z,94423.14
2018-03-26T03:17:40.709Z,94422.09
2018-03-26T03:20:07.710Z,94415.07
2018-03-26T03:22:34.778Z,94414.61
2018-03-26T03:25:03.489Z,94416.19
2018-03-26T03:27:30.481Z,94420.00
2018-03-26T03:29:57.494Z,94423.33
2018-03-26T03:32:25.420Z,94420.18
2018-03-26T03:34:53.265Z,94424.11
2018-03-26T03:37:21.093Z,94426.25
2018-03-26T03:39:48.977Z,94429.19
2018-03-26T03:42:16.380Z,94428.70
2018-03-26T03:44:43.393Z,94431.39
2018-03-26T03:47:10.688Z,94431.14
2018-03-26T03:49:37.739Z,94426.50
2018-03-26T03:52:05.600Z,94432.09
2018-03-26T03:54:33.734Z,94425.28
2018-03-26T03:57:01.603Z,94423.88
2018-03-26T03:59:28.608Z,94414.61
2018-03-26T04:01:55.660Z,94404.41
2018-03-26T04:04:23.488Z,94396.66
2018-03-26T04:06:51.413Z,94396.66
2018-03-26T04:09:19.298Z,94399.20
2018-03-26T04:11:46.219Z,94396.83
2018-03-26T04:14:13.221Z,94393.65
2018-03-26T04:16:41.058Z,94395.64
2018-03-26T04:19:08.882Z,94401.77
2018-03-26T04:21:36.832Z,94402.51
2018-03-26T04:24:04.716Z,94406.69
2018-03-26T04:26:32.607Z,94408.77
2018-03-26T04:29:03.288Z,94403.70
2018-03-26T04:31:32.019Z,94405.13
2018-03-26T04:33:59.747Z,94398.83
2018-03-26T04:36:27.007Z,94392.88
2018-03-26T04:38:54.904Z,94389.55
2018-03-26T04:41:21.927Z,94390.65
2018-03-26T04:43:49.237Z,94401.39
2018-03-26T04:46:17.108Z,94393.36
2018-03-26T04:48:44.040Z,94408.38
2018-03-26T04:51:11.927Z,94402.14
2018-03-26T04:53:39.845Z,94408.62
2018-03-26T04:56:06.889Z,94414.17
2018-03-26T04:58:33.815Z,94415.91
2018-03-26T05:01:00.815Z,94412.75
2018-03-26T05:03:40.666Z,94414.49
2018-03-26T05:06:07.692Z,94402.95
2018-03-26T05:08:35.563Z,94418.67
2018-03-26T05:11:02.574Z,94414.00
2018-03-26T05:13:29.923Z,94417.58
2018-03-26T05:15:56.935Z,94421.13
2018-03-26T05:18:23.991Z,94421.04
2018-03-26T05:20:51.794Z,94425.69
2018-03-26T05:23:19.544Z,94421.41
2018-03-26T05:25:46.536Z,94419.77
2018-03-26T05:28:13.572Z,94419.04
2018-03-26T05:30:41.292Z,94424.02
2018-03-26T05:33:08.354Z,94419.28
2018-03-26T05:35:36.219Z,94418.64
2018-03-26T05:38:03.390Z,94418.73
2018-03-26T05:40:30.461Z,94411.77
2018-03-26T05:42:57.410Z,94415.80
2018-03-26T05:45:24.399Z,94420.31
2018-03-26T05:47:51.467Z,94413.59
2018-03-26T05:50:18.699Z,94419.52
2018-03-26T05:52:45.738Z,94418.51
2018-03-26T05:55:12.756Z,94417.47
2018-03-26T05:57:39.841Z,94408.16
2018-03-26T06:00:06.936Z,94402.87
2018-03-26T06:02:34.695Z,94403.02
2018-03-26T06:05:01.959Z,94407.59
2018-03-26T06:07:28.971Z,94416.91
2018-03-26T06:09:56.304Z,94409.83
2018-03-26T06:12:24.144Z,94412.27
2018-03-26T06:14:52.166Z,94412.36
2018-03-26T06:17:19.097Z,94415.98
2018-03-26T06:19:47.852Z,94412.88
2018-03-26T06:22:15.058Z,94398.35
2018-03-26T06:24:42.107Z,94401.11
2018-03-26T06:27:09.880Z,94402.54
2018-03-26T06:29:37.781Z,94406.97
2018-03-26T06:32:05.666Z,94400.86
2018-03-26T06:34:32.598Z,94402.85
2018-03-26T06:37:02.774Z,94395.89
2018-03-26T06:39:30.625Z,94399.59
2018-03-26T06:41:57.544Z,94391.05
2018-03-26T06:44:24.553Z,94392.39
2018-03-26T06:46:51.855Z,94392.63
2018-03-26T06:49:18.907Z,94393.27
2018-03-26T06:51:46.825Z,94384.05
2018-03-26T06:54:14.620Z,94385.21
2018-03-26T06:56:41.569Z,94379.44
2018-03-26T06:59:08.552Z,94380.78
2018-03-26T07:01:36.437Z,94380.42
2018-03-26T07:04:03.431Z,94370.28
2018-03-26T07:06:34.184Z,94374.38
2018-03-26T07:09:01.241Z,94379.75
2018-03-26T07:11:28.239Z,94382.13
2018-03-26T07:13:55.250Z,94383.11
2018-03-26T07:16:22.977Z,94387.02
2018-03-26T07:18:50.020Z,94379.98
2018-03-26T07:21:17.759Z,94371.13
2018-03-26T07:23:45.580Z,94375.41
2018-03-26T07:33:50.862Z,94379.59
2018-03-26T07:36:20.618Z,94384.72
2018-03-26T07:41:19.661Z,94383.93
2018-03-26T07:51:19.519Z,94381.18
2018-03-26T07:53:47.602Z,94380.14
2018-03-26T07:58:47.336Z,94364.91
2018-03-26T08:06:17.750Z,94375.56
2018-03-26T08:16:18.707Z,94375.66
2018-03-26T08:18:48.850Z,94376.82
2018-03-26T08:28:53.483Z,94383.23
2018-03-26T08:36:22.131Z,94381.33
2018-03-26T08:46:20.165Z,94366.80
2018-03-26T08:51:21.659Z,94371.53
2018-03-26T08:56:23.602Z,94373.77
2018-03-26T09:03:57.109Z,94346.31
2018-03-26T09:06:27.133Z,94338.89
2018-03-26T09:11:26.376Z,94345.91
2018-03-26T09:23:58.844Z,94345.70
2018-03-26T09:28:57.738Z,94347.99
2018-03-26T09:36:28.708Z,94340.88
2018-03-26T09:38:58.817Z,94347.05
2018-03-26T09:43:57.413Z,94353.27
2018-03-26T09:53:58.442Z,94349.64
2018-03-26T10:01:31.908Z,94354.70
2018-03-26T10:09:06.538Z,94343.56
2018-03-26T10:11:36.794Z,94353.36
2018-03-26T10:19:05.248Z,94356.11
2018-03-26T10:24:03.929Z,94357.79
2018-03-26T10:31:32.358Z,94344.75
2018-03-26T10:36:31.019Z,94342.12
2018-03-26T10:41:30.588Z,94349.52
2018-03-26T10:48:58.891Z,94344.23
2018-03-26T10:59:02.219Z,94340.66
2018-03-26T11:04:00.890Z,94337.63
2018-03-26T11:06:28.882Z,94340.50
2018-03-26T11:14:00.441Z,94328.31
2018-03-26T11:21:29.853Z,94333.35
2018-03-26T11:23:59.921Z,94332.95
2018-03-26T11:28:58.601Z,94319.44
2018-03-26T11:44:03.254Z,94308.83
2018-03-26T11:51:35.866Z,94292.80
2018-03-26T11:56:41.000Z,94295.33
2018-03-26T12:09:15.653Z,94282.69
2018-03-26T12:14:14.498Z,94282.59
2018-03-26T12:19:13.861Z,94286.56
2018-03-26T12:26:42.623Z,94294.67
2018-03-26T12:31:42.080Z,94293.77
2018-03-26T12:36:40.660Z,94292.27
2018-03-26T12:41:39.641Z,94291.82
2018-03-26T12:46:38.401Z,94289.59
2018-03-26T12:51:37.889Z,94288.52
2018-03-26T13:01:38.199Z,94285.11
2018-03-26T13:06:37.776Z,94287.48
2018-03-26T13:19:09.736Z,94290.61
2018-03-26T13:24:09.044Z,94280.07
2018-03-26T13:29:07.896Z,94278.33
2018-03-26T13:39:09.727Z,94271.40
2018-03-26T13:41:42.167Z,94274.64
2018-03-26T13:54:14.952Z,94271.30
2018-03-26T13:59:13.922Z,94274.09
2018-03-26T14:09:16.298Z,94273.20
2018-03-26T14:14:17.766Z,94263.95
2018-03-26T14:21:49.825Z,94268.38
2018-03-26T14:24:19.680Z,94263.70
2018-03-26T14:29:18.441Z,94258.08
2018-03-26T14:34:17.549Z,94260.31
2018-03-26T14:41:45.160Z,94256.18
2018-03-26T14:44:12.118Z,94252.91
2018-03-26T14:46:39.040Z,94251.96
2018-03-26T14:49:05.966Z,94254.66
2018-03-26T14:51:32.925Z,94247.78
2018-03-26T14:56:30.161Z,94248.88
2018-03-26T15:03:58.067Z,94248.46
2018-03-26T15:11:29.117Z,94258.91
2018-03-26T15:16:27.967Z,94263.13
2018-03-26T15:21:26.625Z,94250.86
2018-03-26T15:39:06.284Z,94290.28
2018-03-26T15:46:34.195Z,94289.17
2018-03-26T15:51:36.414Z,94295.04
2018-03-26T15:54:08.809Z,94293.45
2018-03-26T15:56:35.748Z,94294.42
2018-03-26T15:59:02.680Z,94299.83
2018-03-26T16:01:29.602Z,94295.66
2018-03-26T16:03:59.729Z,94295.04
2018-03-26T16:08:57.875Z,94305.48
2018-03-26T16:24:03.884Z,94295.13
2018-03-26T16:26:33.531Z,94299.47
2018-03-26T16:34:03.648Z,94308.17
2018-03-26T16:36:30.996Z,94317.79
2018-03-26T16:43:56.526Z,94321.12
2018-03-26T16:46:23.459Z,94318.03
2018-03-26T16:48:50.404Z,94314.61
2018-03-26T16:56:21.091Z,94323.07
2018-03-26T17:01:20.404Z,94318.28
2018-03-26T17:03:47.455Z,94319.22
2018-03-26T17:06:14.314Z,94312.02
2018-03-26T17:08:41.277Z,94310.14
2018-03-26T17:11:11.666Z,94309.50
2018-03-26T17:16:07.928Z,94320.50
2018-03-26T17:18:34.888Z,94326.67
2018-03-26T17:21:01.987Z,94324.19
2018-03-26T17:23:28.926Z,94332.26
2018-03-26T17:25:56.015Z,94329.81
2018-03-26T17:36:08.960Z,94344.63
2018-03-26T17:51:17.018Z,94361.16
2018-03-26T18:21:43.566Z,94374.20
2018-03-26T18:26:42.348Z,94383.05
2018-03-26T18:31:38.807Z,94378.10
2018-03-26T18:34:05.763Z,94383.08
2018-03-26T18:39:10.928Z,94381.22
2018-03-26T18:44:07.193Z,94378.69
2018-03-26T18:46:34.221Z,94379.23
2018-03-26T18:51:36.085Z,94376.13
2018-03-26T18:54:06.231Z,94380.64
2018-03-26T18:56:33.185Z,94383.64
2018-03-26T19:01:32.308Z,94380.83
2018-03-26T19:03:59.257Z,94377.98
2018-03-26T19:06:26.457Z,94374.44
2018-03-26T19:11:25.044Z,94374.13
2018-03-26T19:13:51.986Z,94378.72
2018-03-26T19:16:18.928Z,94381.89
2018-03-26T19:18:45.877Z,94382.99
